createdAt,value
2023-01-13T00:00:22.460Z,5.68
2023-01-13T00:01:28.117Z,6.57
2023-01-13T00:02:30.516Z,5.28
2023-01-13T00:03:34.200Z,3.40
2023-01-13T00:04:36.670Z,4.10
2023-01-13T00:05:40.105Z,3.85
2023-01-13T00:06:42.486Z,4.22
2023-01-13T00:07:46.568Z,4.20
2023-01-13T00:08:51.134Z,6.15
2023-01-13T00:09:54.876Z,5.10
2023-01-13T00:10:57.337Z,3.75
2023-01-13T00:12:01.056Z,5.50
2023-01-13T00:13:05.290Z,4.55
2023-01-13T00:14:09.062Z,3.90
2023-01-13T00:15:13.484Z,6.22
2023-01-13T00:16:19.220Z,3.00
2023-01-13T00:17:22.998Z,4.72
2023-01-13T00:18:27.066Z,5.97
2023-01-13T00:19:30.122Z,5.55
2023-01-13T00:20:33.895Z,5.38
2023-01-13T00:21:37.342Z,3.03
2023-01-13T00:22:41.413Z,2.92
2023-01-13T00:23:44.501Z,4.30
2023-01-13T00:24:49.349Z,5.05
2023-01-13T00:25:52.270Z,3.65
2023-01-13T00:26:55.851Z,4.80
2023-01-13T00:27:58.165Z,2.90
2023-01-13T00:29:01.969Z,3.33
2023-01-13T00:30:05.979Z,4.13
2023-01-13T00:31:10.908Z,5.88
2023-01-13T00:32:13.559Z,2.33
2023-01-13T00:33:17.163Z,3.22
2023-01-13T00:34:19.843Z,6.13
2023-01-13T00:35:23.185Z,2.42
2023-01-13T00:36:26.179Z,2.95
2023-01-13T00:37:29.483Z,2.50
2023-01-13T00:38:33.465Z,4.22
2023-01-13T00:39:36.865Z,6.07
2023-01-13T00:40:40.748Z,4.10
2023-01-13T00:42:01.650Z,3.15
2023-01-13T00:43:22.616Z,3.03
2023-01-13T00:44:26.268Z,3.53
2023-01-13T00:45:28.958Z,4.72
2023-01-13T00:46:32.317Z,2.92
2023-01-13T00:47:34.828Z,3.08
2023-01-13T00:48:38.392Z,5.05
2023-01-13T00:49:40.663Z,5.53
2023-01-13T00:50:44.196Z,4.63
2023-01-13T00:51:46.712Z,7.43
2023-01-13T00:52:50.440Z,4.60
2023-01-13T00:53:52.770Z,5.15
2023-01-13T00:54:56.112Z,4.80
2023-01-13T00:56:04.293Z,7.32
2023-01-13T00:57:07.823Z,7.03
2023-01-13T00:58:10.037Z,6.28
2023-01-13T00:59:14.775Z,6.75
2023-01-13T01:00:17.846Z,7.38
2023-01-13T01:01:23.215Z,5.40
2023-01-13T01:02:26.003Z,5.63
2023-01-13T01:03:30.029Z,6.60
2023-01-13T01:04:32.863Z,6.22
2023-01-13T01:05:36.295Z,6.35
2023-01-13T01:06:38.781Z,6.13
2023-01-13T01:07:42.014Z,5.45
2023-01-13T01:08:44.691Z,7.07
2023-01-13T01:09:48.521Z,5.32
2023-01-13T01:10:50.849Z,7.80
2023-01-13T01:11:55.613Z,7.63
2023-01-13T01:12:58.473Z,7.22
2023-01-13T01:14:04.000Z,5.65
2023-01-13T01:15:10.051Z,7.97
2023-01-13T01:16:15.772Z,7.47
2023-01-13T01:17:18.329Z,6.60
2023-01-13T01:18:21.712Z,6.22
2023-01-13T01:19:24.732Z,5.05
2023-01-13T01:20:28.023Z,7.82
2023-01-13T01:21:30.488Z,5.57
2023-01-13T01:22:34.066Z,5.20
2023-01-13T01:23:37.265Z,8.68
2023-01-13T01:24:40.705Z,6.20
2023-01-13T01:25:43.372Z,7.78
2023-01-13T01:26:47.708Z,7.78
2023-01-13T01:27:51.394Z,9.30
2023-01-13T01:28:55.583Z,8.15
2023-01-13T01:29:57.965Z,7.45
2023-01-13T01:31:02.170Z,5.45
2023-01-13T01:32:04.620Z,9.05
2023-01-13T01:33:08.251Z,5.57
2023-01-13T01:34:10.928Z,6.15
2023-01-13T01:35:14.191Z,5.78
2023-01-13T01:36:18.151Z,4.65
2023-01-13T01:37:21.560Z,6.68
2023-01-13T01:38:24.133Z,6.82
2023-01-13T01:39:27.684Z,6.13
2023-01-13T01:40:30.189Z,7.53
2023-01-13T01:41:35.620Z,5.35
2023-01-13T01:42:56.511Z,6.68
2023-01-13T01:44:06.768Z,8.57
2023-01-13T01:45:17.998Z,5.75
2023-01-13T01:46:21.455Z,6.10
2023-01-13T01:47:25.180Z,4.43
2023-01-13T01:48:31.475Z,6.25
2023-01-13T01:49:37.387Z,6.13
2023-01-13T01:50:41.482Z,4.53
2023-01-13T01:51:49.890Z,5.57
2023-01-13T01:52:58.025Z,6.68
2023-01-13T01:54:03.367Z,6.25
2023-01-13T01:55:10.522Z,4.87
2023-01-13T01:56:13.179Z,5.13
2023-01-13T01:57:21.172Z,5.55
2023-01-13T01:58:29.255Z,5.65
2023-01-13T01:59:37.545Z,4.32
2023-01-13T02:00:40.003Z,4.78
2023-01-13T02:01:44.534Z,5.00
2023-01-13T02:02:50.009Z,5.72
2023-01-13T02:03:59.761Z,5.85
2023-01-13T02:05:02.877Z,4.63
2023-01-13T02:06:07.735Z,6.67
2023-01-13T02:07:10.311Z,5.00
2023-01-13T02:08:15.390Z,5.32
2023-01-13T02:09:17.893Z,5.80
2023-01-13T02:10:23.498Z,6.00
2023-01-13T02:11:49.827Z,5.18
2023-01-13T02:12:55.353Z,5.97
2023-01-13T02:13:57.869Z,5.70
2023-01-13T02:15:07.300Z,4.90
2023-01-13T02:16:19.301Z,4.25
2023-01-13T02:17:37.081Z,6.80
2023-01-13T02:18:55.037Z,4.35
2023-01-13T02:20:31.898Z,6.70
2023-01-13T02:22:15.896Z,6.13
2023-01-13T02:24:16.781Z,6.25
2023-01-13T02:25:49.001Z,6.28
2023-01-13T02:27:27.703Z,5.63
2023-01-13T02:29:09.385Z,6.45
2023-01-13T02:30:41.867Z,9.13
2023-01-13T02:31:51.301Z,8.88
2023-01-13T02:33:09.320Z,7.30
2023-01-13T02:34:21.243Z,8.20
2023-01-13T02:35:30.337Z,6.63
2023-01-13T02:36:40.990Z,8.25
2023-01-13T02:37:44.997Z,7.85
2023-01-13T02:38:53.874Z,8.15
2023-01-13T02:39:59.923Z,11.18
2023-01-13T02:41:22.478Z,9.65
2023-01-13T02:42:50.219Z,8.15
2023-01-13T02:44:10.469Z,9.70
2023-01-13T02:45:19.946Z,6.73
2023-01-13T02:46:26.664Z,7.10
2023-01-13T02:47:32.997Z,7.50
2023-01-13T02:48:38.540Z,5.50
2023-01-13T02:49:45.281Z,7.38
2023-01-13T02:50:53.057Z,8.30
2023-01-13T02:52:03.710Z,7.47
2023-01-13T02:53:13.195Z,8.85
2023-01-13T02:54:21.027Z,8.20
2023-01-13T02:55:31.299Z,8.65
2023-01-13T02:56:44.862Z,10.63
2023-01-13T02:57:49.867Z,8.30
2023-01-13T02:58:56.026Z,7.63
2023-01-13T03:00:00.396Z,6.07
2023-01-13T03:01:04.346Z,5.85
2023-01-13T03:02:10.535Z,7.57
2023-01-13T03:03:13.772Z,8.80
2023-01-13T03:04:47.807Z,7.53
2023-01-13T03:05:55.769Z,6.30
2023-01-13T03:07:07.518Z,8.15
2023-01-13T03:08:33.644Z,7.73
2023-01-13T03:09:44.637Z,8.77
2023-01-13T03:11:04.250Z,8.73
2023-01-13T03:12:15.833Z,8.80
2023-01-13T03:13:31.739Z,7.80
2023-01-13T03:14:42.051Z,8.52
2023-01-13T03:15:53.845Z,9.88
2023-01-13T03:17:15.831Z,6.80
2023-01-13T03:18:31.104Z,8.05
2023-01-13T03:19:44.362Z,7.95
2023-01-13T03:20:54.955Z,6.27
2023-01-13T03:22:05.528Z,7.47
2023-01-13T03:23:14.228Z,7.45
2023-01-13T03:24:22.125Z,8.50
2023-01-13T03:25:29.131Z,7.43
2023-01-13T03:26:39.070Z,9.32
2023-01-13T03:27:50.953Z,7.70
2023-01-13T03:28:59.377Z,8.05
2023-01-13T03:30:08.470Z,6.13
2023-01-13T03:31:14.228Z,7.97
2023-01-13T03:32:27.097Z,10.23
2023-01-13T03:33:34.642Z,7.32
2023-01-13T03:34:46.054Z,8.63
2023-01-13T03:35:52.392Z,8.43
2023-01-13T03:36:58.036Z,8.98
2023-01-13T03:38:05.864Z,12.52
2023-01-13T03:39:13.629Z,10.45
2023-01-13T03:40:19.091Z,8.27
2023-01-13T03:41:28.109Z,9.10
2023-01-13T03:42:33.815Z,5.82
2023-01-13T03:43:58.892Z,10.83
2023-01-13T03:45:06.805Z,8.50
2023-01-13T03:46:16.796Z,9.57
2023-01-13T03:47:27.849Z,10.15
2023-01-13T03:48:36.150Z,7.78
2023-01-13T03:49:47.008Z,8.13
2023-01-13T03:50:52.358Z,10.35
2023-01-13T03:51:59.824Z,8.68
2023-01-13T03:53:07.006Z,7.80
2023-01-13T03:54:15.651Z,7.03
2023-01-13T03:55:21.352Z,10.13
2023-01-13T03:56:30.954Z,7.50
2023-01-13T03:57:39.995Z,8.15
2023-01-13T03:58:47.387Z,7.28
2023-01-13T03:59:54.662Z,8.20
2023-01-13T04:01:02.769Z,6.55
2023-01-13T04:02:10.997Z,7.32
2023-01-13T04:03:25.401Z,7.32
2023-01-13T04:04:33.555Z,8.95
2023-01-13T04:05:43.229Z,7.20
2023-01-13T04:06:51.737Z,7.23
2023-01-13T04:08:03.775Z,6.00
2023-01-13T04:09:15.305Z,8.10
2023-01-13T04:10:24.076Z,7.75
2023-01-13T04:11:32.851Z,7.53
2023-01-13T04:12:58.008Z,9.02
2023-01-13T04:14:04.897Z,8.35
2023-01-13T04:15:08.547Z,6.72
2023-01-13T04:16:13.542Z,7.40
2023-01-13T04:17:16.693Z,7.43
2023-01-13T04:18:25.331Z,9.30
2023-01-13T04:19:28.360Z,9.57
2023-01-13T04:20:32.274Z,8.00
2023-01-13T04:21:36.069Z,7.03
2023-01-13T04:22:39.686Z,6.75
2023-01-13T04:23:42.335Z,7.53
2023-01-13T04:24:46.074Z,9.40
2023-01-13T04:25:49.619Z,6.75
2023-01-13T04:26:53.210Z,8.00
2023-01-13T04:27:55.979Z,8.82
2023-01-13T04:28:59.370Z,7.00
2023-01-13T04:30:02.748Z,9.45
2023-01-13T04:31:06.315Z,10.73
2023-01-13T04:32:08.956Z,8.57
2023-01-13T04:33:12.905Z,7.38
2023-01-13T04:34:17.111Z,9.93
2023-01-13T04:35:21.112Z,7.60
2023-01-13T04:36:27.757Z,9.90
2023-01-13T04:37:30.305Z,9.05
2023-01-13T04:38:34.055Z,8.90
2023-01-13T04:39:37.318Z,8.37
2023-01-13T04:40:41.334Z,7.93
2023-01-13T04:41:59.196Z,9.55
2023-01-13T04:43:03.054Z,9.77
2023-01-13T04:44:05.906Z,8.68
2023-01-13T04:45:11.405Z,8.13
2023-01-13T04:46:14.797Z,8.55
2023-01-13T04:47:18.487Z,9.57
2023-01-13T04:48:20.994Z,12.07
2023-01-13T04:49:25.976Z,8.85
2023-01-13T04:50:28.396Z,10.23
2023-01-13T04:51:31.833Z,10.40
2023-01-13T04:52:34.616Z,10.02
2023-01-13T04:53:38.132Z,9.15
2023-01-13T04:54:40.386Z,10.80
2023-01-13T04:55:44.545Z,10.98
2023-01-13T04:56:46.959Z,10.77
2023-01-13T04:57:50.611Z,9.90
2023-01-13T04:58:53.079Z,10.77
2023-01-13T04:59:56.358Z,10.13
2023-01-13T05:00:59.624Z,11.40
2023-01-13T05:02:02.334Z,10.13
2023-01-13T05:03:05.892Z,11.32
2023-01-13T05:04:11.799Z,9.45
2023-01-13T05:05:17.054Z,12.02
2023-01-13T05:06:19.650Z,10.48
2023-01-13T05:07:22.975Z,10.80
2023-01-13T05:08:25.336Z,10.25
2023-01-13T05:09:28.777Z,10.77
2023-01-13T05:10:31.274Z,8.85
2023-01-13T05:11:52.344Z,12.83
2023-01-13T05:13:13.340Z,10.50
2023-01-13T05:14:33.963Z,12.40
2023-01-13T05:15:54.911Z,10.55
2023-01-13T05:17:01.634Z,10.50
2023-01-13T05:18:04.902Z,11.77
2023-01-13T05:19:08.304Z,10.88
2023-01-13T05:20:12.062Z,10.00
2023-01-13T05:21:34.635Z,9.48
2023-01-13T05:22:55.351Z,9.88
2023-01-13T05:24:16.481Z,11.13
2023-01-13T05:25:22.967Z,10.27
2023-01-13T05:26:25.494Z,10.20
2023-01-13T05:27:29.554Z,9.93
2023-01-13T05:28:33.798Z,10.77
2023-01-13T05:29:36.059Z,9.38
2023-01-13T05:30:42.572Z,7.60
2023-01-13T05:31:45.100Z,11.10
2023-01-13T05:32:48.817Z,9.00
2023-01-13T05:33:51.266Z,7.68
2023-01-13T05:34:56.014Z,8.53
2023-01-13T05:36:03.101Z,8.80
2023-01-13T05:37:11.109Z,10.88
2023-01-13T05:38:15.505Z,9.68
2023-01-13T05:39:18.363Z,9.68
2023-01-13T05:40:39.342Z,8.85
2023-01-13T05:42:00.323Z,6.57
2023-01-13T05:43:21.713Z,7.05
2023-01-13T05:44:24.003Z,7.60
2023-01-13T05:45:27.345Z,8.43
2023-01-13T05:46:31.229Z,9.03
2023-01-13T05:47:33.895Z,7.53
2023-01-13T05:48:39.506Z,9.10
2023-01-13T05:49:42.331Z,10.65
2023-01-13T05:50:46.357Z,6.53
2023-01-13T05:51:48.929Z,8.25
2023-01-13T05:52:53.803Z,9.57
2023-01-13T05:53:57.118Z,8.20
2023-01-13T05:54:59.386Z,7.28
2023-01-13T05:56:05.518Z,7.13
2023-01-13T05:57:07.981Z,7.97
2023-01-13T05:58:12.266Z,8.10
2023-01-13T05:59:14.580Z,8.52
2023-01-13T06:00:19.358Z,6.82
2023-01-13T06:01:22.769Z,8.93
2023-01-13T06:02:26.658Z,8.10
2023-01-13T06:03:30.177Z,9.65
2023-01-13T06:04:32.712Z,6.45
2023-01-13T06:05:36.795Z,6.03
2023-01-13T06:06:40.262Z,9.35
2023-01-13T06:07:42.536Z,6.87
2023-01-13T06:08:47.533Z,6.60
2023-01-13T06:09:49.868Z,7.55
2023-01-13T06:10:53.255Z,7.38
2023-01-13T06:11:55.870Z,6.93
2023-01-13T06:12:59.427Z,5.25
2023-01-13T06:14:01.877Z,7.57
2023-01-13T06:15:05.728Z,5.88
2023-01-13T06:16:09.717Z,5.68
2023-01-13T06:17:15.014Z,6.38
2023-01-13T06:18:18.392Z,8.60
2023-01-13T06:19:20.753Z,8.90
2023-01-13T06:20:25.303Z,7.15
2023-01-13T06:21:27.762Z,7.00
2023-01-13T06:22:33.059Z,7.97
2023-01-13T06:23:38.716Z,7.28
2023-01-13T06:24:45.924Z,6.78
2023-01-13T06:25:54.993Z,8.35
2023-01-13T06:26:57.560Z,6.07
2023-01-13T06:28:01.904Z,7.20
2023-01-13T06:29:04.587Z,8.23
2023-01-13T06:30:09.514Z,6.65
2023-01-13T06:31:13.481Z,4.70
2023-01-13T06:32:19.283Z,7.30
2023-01-13T06:33:27.085Z,6.38
2023-01-13T06:34:30.011Z,7.97
2023-01-13T06:35:37.032Z,5.93
2023-01-13T06:36:44.107Z,8.55
2023-01-13T06:37:51.601Z,5.18
2023-01-13T06:38:57.724Z,7.20
2023-01-13T06:40:04.196Z,4.10
2023-01-13T06:41:08.180Z,6.63
2023-01-13T06:42:28.748Z,7.90
2023-01-13T06:43:32.152Z,8.05
2023-01-13T06:44:36.245Z,7.60
2023-01-13T06:45:39.531Z,6.00
2023-01-13T06:46:42.882Z,9.23
2023-01-13T06:47:45.381Z,6.63
2023-01-13T06:48:48.915Z,7.32
2023-01-13T06:49:51.234Z,5.82
2023-01-13T06:50:54.904Z,5.23
2023-01-13T06:51:57.368Z,8.93
2023-01-13T06:53:00.916Z,8.18
2023-01-13T06:54:03.871Z,10.40
2023-01-13T06:55:09.339Z,6.28
2023-01-13T06:56:13.027Z,5.93
2023-01-13T06:57:15.237Z,10.18
2023-01-13T06:58:18.569Z,9.85
2023-01-13T06:59:21.012Z,4.38
2023-01-13T07:00:25.864Z,6.97
2023-01-13T07:01:29.429Z,5.40
2023-01-13T07:02:31.621Z,5.78
2023-01-13T07:03:34.862Z,8.23
2023-01-13T07:04:37.273Z,6.18
2023-01-13T07:05:42.432Z,8.40
2023-01-13T07:06:44.801Z,6.22
2023-01-13T07:07:48.113Z,6.38
2023-01-13T07:08:50.489Z,5.97
2023-01-13T07:09:53.982Z,8.48
2023-01-13T07:10:59.465Z,6.78
2023-01-13T07:12:01.816Z,7.97
2023-01-13T07:13:23.692Z,5.57
2023-01-13T07:14:44.838Z,6.68
2023-01-13T07:15:58.290Z,5.97
2023-01-13T07:17:00.543Z,3.67
2023-01-13T07:18:04.309Z,5.68
2023-01-13T07:19:06.543Z,5.93
2023-01-13T07:20:10.863Z,6.85
2023-01-13T07:21:18.809Z,4.45
2023-01-13T07:22:22.117Z,6.57
2023-01-13T07:23:24.935Z,6.30
2023-01-13T07:24:28.191Z,5.60
2023-01-13T07:25:32.524Z,9.43
2023-01-13T07:26:38.204Z,4.93
2023-01-13T07:27:41.919Z,6.55
2023-01-13T07:28:44.746Z,6.07
2023-01-13T07:29:48.149Z,5.35
2023-01-13T07:30:51.471Z,8.65
2023-01-13T07:31:55.009Z,6.75
2023-01-13T07:32:59.298Z,12.23
2023-01-13T07:34:01.814Z,5.70
2023-01-13T07:35:06.121Z,7.35
2023-01-13T07:36:09.072Z,4.20
2023-01-13T07:37:12.884Z,7.43
2023-01-13T07:38:15.725Z,6.70
2023-01-13T07:39:19.000Z,5.70
2023-01-13T07:40:21.313Z,7.97
2023-01-13T07:41:42.829Z,6.63
2023-01-13T07:43:05.464Z,7.38
2023-01-13T07:44:10.914Z,8.57
2023-01-13T07:45:13.167Z,6.03
2023-01-13T07:46:16.677Z,4.88
2023-01-13T07:47:21.875Z,6.43
2023-01-13T07:48:25.029Z,4.13
2023-01-13T07:49:29.374Z,4.82
2023-01-13T07:50:32.737Z,8.00
2023-01-13T07:51:37.278Z,8.02
2023-01-13T07:52:40.609Z,5.28
2023-01-13T07:53:43.120Z,6.07
2023-01-13T07:54:46.684Z,7.72
2023-01-13T07:55:49.895Z,8.93
2023-01-13T07:56:52.049Z,5.75
2023-01-13T07:57:57.110Z,6.55
2023-01-13T07:59:00.572Z,9.18
2023-01-13T08:00:04.905Z,5.95
2023-01-13T08:01:12.200Z,6.65
2023-01-13T08:02:16.038Z,6.25
2023-01-13T08:03:19.663Z,6.68
2023-01-13T08:04:23.007Z,4.80
2023-01-13T08:05:27.228Z,5.32
2023-01-13T08:06:31.197Z,5.80
2023-01-13T08:07:34.125Z,8.15
2023-01-13T08:08:38.407Z,7.00
2023-01-13T08:09:40.760Z,5.32
2023-01-13T08:10:45.162Z,6.32
2023-01-13T08:12:10.400Z,10.73
2023-01-13T08:13:20.118Z,9.38
2023-01-13T08:14:23.605Z,5.10
2023-01-13T08:15:25.939Z,8.13
2023-01-13T08:16:29.276Z,7.80
2023-01-13T08:17:31.864Z,5.20
2023-01-13T08:18:36.860Z,8.93
2023-01-13T08:19:39.114Z,7.80
2023-01-13T08:20:42.755Z,12.45
2023-01-13T08:21:46.593Z,7.13
2023-01-13T08:22:48.994Z,9.50
2023-01-13T08:23:52.723Z,5.88
2023-01-13T08:24:55.051Z,8.70
2023-01-13T08:26:01.515Z,8.45
2023-01-13T08:27:04.224Z,9.05
2023-01-13T08:28:08.076Z,6.77
2023-01-13T08:29:14.918Z,10.82
2023-01-13T08:30:18.570Z,9.45
2023-01-13T08:31:22.467Z,10.43
2023-01-13T08:32:24.805Z,12.05
2023-01-13T08:33:28.989Z,11.70
2023-01-13T08:34:32.354Z,9.50
2023-01-13T08:35:37.307Z,8.43
2023-01-13T08:36:41.304Z,12.20
2023-01-13T08:37:43.988Z,9.60
2023-01-13T08:38:47.575Z,10.00
2023-01-13T08:39:50.340Z,9.40
2023-01-13T08:40:53.884Z,9.27
2023-01-13T08:41:56.112Z,9.25
2023-01-13T08:43:00.015Z,9.60
2023-01-13T08:44:03.348Z,9.13
2023-01-13T08:45:12.168Z,9.88
2023-01-13T08:46:15.461Z,12.10
2023-01-13T08:47:17.659Z,10.10
2023-01-13T08:48:20.937Z,8.50
2023-01-13T08:49:24.584Z,8.20
2023-01-13T08:50:27.982Z,10.50
2023-01-13T08:51:31.273Z,9.65
2023-01-13T08:52:34.635Z,7.80
2023-01-13T08:53:38.208Z,10.70
2023-01-13T08:54:41.551Z,11.00
2023-01-13T08:55:45.148Z,7.80
2023-01-13T08:56:47.833Z,8.50
2023-01-13T08:57:51.131Z,9.20
2023-01-13T08:58:53.466Z,8.45
2023-01-13T08:59:56.995Z,12.43
2023-01-13T09:01:06.246Z,11.57
2023-01-13T09:02:14.939Z,9.38
2023-01-13T09:03:17.704Z,8.27
2023-01-13T09:04:23.704Z,14.30
2023-01-13T09:05:27.516Z,7.65
2023-01-13T09:06:29.922Z,12.63
2023-01-13T09:07:33.373Z,13.60
2023-01-13T09:08:35.925Z,9.18
2023-01-13T09:09:39.690Z,10.43
2023-01-13T09:10:43.112Z,11.70
2023-01-13T09:12:07.411Z,10.02
2023-01-13T09:13:13.756Z,10.95
2023-01-13T09:14:19.087Z,9.10
2023-01-13T09:15:22.722Z,8.48
2023-01-13T09:16:26.719Z,8.20
2023-01-13T09:17:30.171Z,7.53
2023-01-13T09:18:33.576Z,8.35
2023-01-13T09:19:37.040Z,8.55
2023-01-13T09:20:40.472Z,8.23
2023-01-13T09:21:42.757Z,7.97
2023-01-13T09:22:46.073Z,9.38
2023-01-13T09:23:48.347Z,7.85
2023-01-13T09:24:51.627Z,7.38
2023-01-13T09:25:54.895Z,7.47
2023-01-13T09:26:57.237Z,10.52
2023-01-13T09:28:00.518Z,7.90
2023-01-13T09:29:02.906Z,7.95
2023-01-13T09:30:07.587Z,9.48
2023-01-13T09:31:10.852Z,11.80
2023-01-13T09:32:16.849Z,9.17
2023-01-13T09:33:37.722Z,9.50
2023-01-13T09:34:59.546Z,10.68
2023-01-13T09:36:03.167Z,9.73
2023-01-13T09:37:07.006Z,10.30
2023-01-13T09:38:10.230Z,8.52
2023-01-13T09:39:12.401Z,10.73
2023-01-13T09:40:19.806Z,9.43
2023-01-13T09:41:43.610Z,9.48
2023-01-13T09:43:10.661Z,6.35
2023-01-13T09:44:19.909Z,6.37
2023-01-13T09:45:26.577Z,8.65
2023-01-13T09:46:44.250Z,9.60
2023-01-13T09:47:57.759Z,11.10
2023-01-13T09:49:03.734Z,10.77
2023-01-13T09:50:18.410Z,9.35
2023-01-13T09:51:29.758Z,8.95
2023-01-13T09:52:32.074Z,8.77
2023-01-13T09:53:39.596Z,8.98
2023-01-13T09:54:44.074Z,8.23
2023-01-13T09:55:47.340Z,8.07
2023-01-13T09:56:50.719Z,11.23
2023-01-13T09:57:54.361Z,9.75
2023-01-13T09:58:57.437Z,10.88
2023-01-13T10:00:01.138Z,10.30
2023-01-13T10:01:17.358Z,10.65
2023-01-13T10:02:47.757Z,9.15
2023-01-13T10:03:52.627Z,7.47
2023-01-13T10:05:14.979Z,8.23
2023-01-13T10:06:22.348Z,7.88
2023-01-13T10:07:25.610Z,10.80
2023-01-13T10:08:32.770Z,9.02
2023-01-13T10:09:47.585Z,9.95
2023-01-13T10:10:53.891Z,10.95
2023-01-13T10:12:18.375Z,9.43
2023-01-13T10:13:23.139Z,8.73
2023-01-13T10:14:33.308Z,7.05
2023-01-13T10:15:36.144Z,7.93
2023-01-13T10:16:46.038Z,7.45
2023-01-13T10:17:56.209Z,6.20
2023-01-13T10:19:07.885Z,9.00
2023-01-13T10:20:22.467Z,7.13
2023-01-13T10:21:56.732Z,10.80
2023-01-13T10:23:13.118Z,6.85
2023-01-13T10:24:25.408Z,9.07
2023-01-13T10:25:43.605Z,10.68
2023-01-13T10:26:55.570Z,11.63
2023-01-13T10:28:09.299Z,10.75
2023-01-13T10:29:24.960Z,11.57
2023-01-13T10:30:34.112Z,7.05
2023-01-13T10:31:37.769Z,9.03
2023-01-13T10:32:45.557Z,7.70
2023-01-13T10:33:49.433Z,12.85
2023-01-13T10:34:57.206Z,7.70
2023-01-13T10:36:02.583Z,8.18
2023-01-13T10:37:07.446Z,6.97
2023-01-13T10:38:16.549Z,6.07
2023-01-13T10:39:21.354Z,6.38
2023-01-13T10:40:25.767Z,5.22
2023-01-13T10:41:29.469Z,4.88
2023-01-13T10:42:31.862Z,5.33
2023-01-13T10:43:35.179Z,6.28
2023-01-13T10:44:48.317Z,5.93
2023-01-13T10:45:59.814Z,5.30
2023-01-13T10:47:03.212Z,9.57
2023-01-13T10:48:13.552Z,5.78
2023-01-13T10:49:32.831Z,6.22
2023-01-13T10:50:38.859Z,4.07
2023-01-13T10:51:46.132Z,3.40
2023-01-13T10:53:01.390Z,4.88
2023-01-13T10:54:20.493Z,3.60
2023-01-13T10:55:28.824Z,4.40
2023-01-13T10:56:34.742Z,6.57
2023-01-13T10:57:37.190Z,4.72
2023-01-13T10:58:40.746Z,3.55
2023-01-13T10:59:44.274Z,6.35
2023-01-13T11:01:00.666Z,5.22
2023-01-13T11:02:19.883Z,6.00
2023-01-13T11:03:35.549Z,4.70
2023-01-13T11:04:40.067Z,5.65
2023-01-13T11:07:28.244Z,4.78
2023-01-13T11:08:43.980Z,5.30
2023-01-13T11:09:46.479Z,3.55
2023-01-13T11:11:26.176Z,3.78
2023-01-13T11:12:32.511Z,5.55
2023-01-13T11:15:39.687Z,4.30
2023-01-13T11:16:53.124Z,5.05
2023-01-13T11:18:02.885Z,4.47
2023-01-13T11:19:12.907Z,5.87
2023-01-13T11:20:22.149Z,4.15
2023-01-13T11:21:34.746Z,3.20
2023-01-13T11:22:43.348Z,4.95
2023-01-13T11:23:51.425Z,5.93
2023-01-13T11:24:58.744Z,3.28
2023-01-13T11:26:06.702Z,4.63
2023-01-13T11:27:16.152Z,3.75
2023-01-13T11:28:36.696Z,4.88
2023-01-13T11:29:45.508Z,4.95
2023-01-13T11:30:56.869Z,4.83
2023-01-13T11:32:09.696Z,4.07
2023-01-13T11:33:31.817Z,5.35
2023-01-13T11:34:38.154Z,4.85
2023-01-13T11:35:45.404Z,6.28
2023-01-13T11:36:52.587Z,4.03
2023-01-13T11:38:02.082Z,5.95
2023-01-13T11:39:19.375Z,5.38
2023-01-13T11:40:29.032Z,6.40
2023-01-13T11:41:42.176Z,7.13
2023-01-13T11:42:50.008Z,4.93
2023-01-13T11:43:57.687Z,3.35
2023-01-13T11:45:08.539Z,5.90
2023-01-13T11:46:11.366Z,5.70
2023-01-13T11:47:15.324Z,5.10
2023-01-13T11:48:23.059Z,5.40
2023-01-13T11:49:28.674Z,3.03
2023-01-13T11:50:36.389Z,3.78
2023-01-13T11:51:43.710Z,4.85
2023-01-13T11:53:11.374Z,6.55
2023-01-13T11:54:36.477Z,5.00
2023-01-13T11:55:48.260Z,4.35
2023-01-13T11:57:31.061Z,3.30
2023-01-13T11:59:05.021Z,4.57
2023-01-13T12:00:27.094Z,5.03
2023-01-13T12:01:52.485Z,3.63
2023-01-13T12:03:08.306Z,4.63
2023-01-13T12:04:26.214Z,4.57
2023-01-13T12:05:37.248Z,3.97
2023-01-13T12:06:43.537Z,5.03
2023-01-13T12:07:56.544Z,4.13
2023-01-13T12:09:31.587Z,3.65
2023-01-13T12:10:45.951Z,5.85
2023-01-13T12:12:23.022Z,3.58
2023-01-13T12:13:39.073Z,3.15
2023-01-13T12:14:55.465Z,5.43
2023-01-13T12:16:24.068Z,4.18
2023-01-13T12:17:33.391Z,3.38
2023-01-13T12:18:56.777Z,5.05
2023-01-13T12:20:18.636Z,2.85
2023-01-13T12:21:22.733Z,3.60
2023-01-13T12:22:29.216Z,5.15
2023-01-13T12:23:35.766Z,4.72
2023-01-13T12:24:45.777Z,4.30
2023-01-13T12:25:53.075Z,4.63
2023-01-13T12:26:59.838Z,3.85
2023-01-13T12:28:08.327Z,4.38
2023-01-13T12:29:15.963Z,5.60
2023-01-13T12:30:27.457Z,6.97
2023-01-13T12:31:33.059Z,4.72
2023-01-13T12:32:39.601Z,6.07
2023-01-13T16:59:41.864Z,14.05
2023-01-13T17:00:49.886Z,12.23
2023-01-13T17:01:55.160Z,12.82
2023-01-13T17:02:59.006Z,17.30
2023-01-13T17:04:02.855Z,12.73
2023-01-13T17:05:05.999Z,12.45
2023-01-13T17:06:12.716Z,15.88
2023-01-13T17:07:19.108Z,14.93
2023-01-13T17:08:22.851Z,18.85
2023-01-13T17:09:29.257Z,13.35
2023-01-13T17:10:38.831Z,20.13
2023-01-13T17:11:43.828Z,17.10
2023-01-13T17:12:47.010Z,13.27
2023-01-13T17:13:51.822Z,16.98
2023-01-13T17:14:54.502Z,14.38
2023-01-13T17:15:59.218Z,13.02
2023-01-13T17:17:02.365Z,10.77
2023-01-13T17:18:04.683Z,15.82
2023-01-13T17:19:09.252Z,14.05
2023-01-13T17:20:14.017Z,19.85
2023-01-13T17:21:17.912Z,18.27
2023-01-13T17:22:22.160Z,17.60
2023-01-13T17:23:25.893Z,16.77
2023-01-13T17:24:31.135Z,15.07
2023-01-13T17:25:35.249Z,10.32
2023-01-13T17:26:49.433Z,15.98
2023-01-13T17:27:53.264Z,11.45
2023-01-13T17:28:55.621Z,12.73
2023-01-13T17:30:00.290Z,10.90
2023-01-13T17:31:05.204Z,11.05
2023-01-13T17:32:08.669Z,10.40
2023-01-13T17:33:11.275Z,13.30
2023-01-13T17:34:15.723Z,9.63
2023-01-13T17:35:22.986Z,13.00
2023-01-13T17:36:26.473Z,11.90
2023-01-13T17:37:30.240Z,15.40
2023-01-13T17:38:32.788Z,17.88
2023-01-13T17:39:36.088Z,20.30
2023-01-13T17:40:38.726Z,62.58
2023-01-13T17:41:42.236Z,42.05
2023-01-13T17:42:44.619Z,23.63
2023-01-13T17:43:48.598Z,15.63
2023-01-13T17:44:53.258Z,9.93
2023-01-13T17:45:57.561Z,13.40
2023-01-13T17:47:02.678Z,11.20
2023-01-13T17:48:06.240Z,8.55
2023-01-13T17:49:11.192Z,9.25
2023-01-13T17:50:14.695Z,10.48
2023-01-13T17:51:19.716Z,12.00
2023-01-13T17:52:23.163Z,10.02
2023-01-13T17:53:25.835Z,8.27
2023-01-13T17:54:29.042Z,9.53
2023-01-13T17:55:32.582Z,10.10
2023-01-13T17:56:35.874Z,9.00
2023-01-13T17:57:39.734Z,7.22
2023-01-13T17:58:45.535Z,6.93
2023-01-13T17:59:49.214Z,12.35
2023-01-13T18:00:51.811Z,8.98
2023-01-13T18:01:55.466Z,9.95
2023-01-13T18:03:01.648Z,8.95
2023-01-13T18:04:06.669Z,8.15
2023-01-13T18:05:12.723Z,8.97
2023-01-13T18:06:17.837Z,7.88
2023-01-13T18:07:21.822Z,9.23
2023-01-13T18:08:25.840Z,8.75
2023-01-13T18:09:29.384Z,9.75
2023-01-13T18:10:33.513Z,10.10
2023-01-13T18:11:38.153Z,8.27
2023-01-13T18:12:40.460Z,7.68
2023-01-13T18:13:44.155Z,10.13
2023-01-13T18:14:48.304Z,7.90
2023-01-13T18:15:59.233Z,9.03
2023-01-13T18:17:02.608Z,8.30
2023-01-13T18:18:07.716Z,11.90
2023-01-13T18:19:29.799Z,7.95
2023-01-13T18:20:50.643Z,10.73
2023-01-13T18:22:11.986Z,9.25
2023-01-13T18:23:35.967Z,9.18
2023-01-13T18:24:57.119Z,8.30
2023-01-13T18:26:18.043Z,12.02
2023-01-13T18:27:26.662Z,12.27
2023-01-13T18:28:31.189Z,6.93
2023-01-13T18:29:35.312Z,15.73
2023-01-13T18:30:37.725Z,8.70
2023-01-13T18:31:41.745Z,8.75
2023-01-13T18:32:45.057Z,8.93
2023-01-13T18:33:49.137Z,9.63
2023-01-13T18:35:04.741Z,11.15
2023-01-13T18:36:10.118Z,10.25
2023-01-13T18:37:14.705Z,9.45
2023-01-13T18:38:18.995Z,9.48
2023-01-13T18:39:21.429Z,13.47
2023-01-13T18:40:24.743Z,9.50
2023-01-13T18:41:46.080Z,8.45
2023-01-13T18:42:52.315Z,12.40
2023-01-13T18:43:55.959Z,9.55
2023-01-13T18:44:59.244Z,10.68
2023-01-13T18:46:02.635Z,10.38
2023-01-13T18:47:05.723Z,10.35
2023-01-13T18:48:09.586Z,10.32
2023-01-13T18:49:13.712Z,10.00
2023-01-13T18:50:18.921Z,12.30
2023-01-13T18:51:22.171Z,11.13
2023-01-13T18:52:26.537Z,9.90
2023-01-13T18:53:30.590Z,7.95
2023-01-13T18:54:33.868Z,8.68
2023-01-13T18:55:38.868Z,10.10
2023-01-13T18:56:42.235Z,14.68
2023-01-13T18:57:47.094Z,8.23
2023-01-13T18:58:52.020Z,8.50
2023-01-13T18:59:58.173Z,11.02
2023-01-13T19:01:06.486Z,14.30
2023-01-13T19:02:16.393Z,11.70
2023-01-13T19:03:29.863Z,10.73
2023-01-13T19:04:36.665Z,16.92
2023-01-13T19:05:40.347Z,21.70
2023-01-13T19:06:48.452Z,26.05
2023-01-13T19:07:52.095Z,22.50
2023-01-13T19:08:55.441Z,18.00
2023-01-13T19:10:00.595Z,16.35
2023-01-13T19:11:07.443Z,16.80
2023-01-13T19:12:13.069Z,14.60
2023-01-13T19:13:16.759Z,16.25
2023-01-13T19:14:35.848Z,17.13
2023-01-13T19:15:39.595Z,14.95
2023-01-13T19:16:44.710Z,11.90
2023-01-13T19:17:48.154Z,11.90